sensor_id;sensor_type;location;lat;lon;timestamp;pressure;altitude;pressure_sealevel;temperature;humidity
7768;BME280;3928;42.626;23.382;2022-10-17T00:01:36;95456.50;;;10.86;73.09
7768;BME280;3928;42.626;23.382;2022-10-17T00:04:03;95452.25;;;10.82;73.15
7768;BME280;3928;42.626;23.382;2022-10-17T00:06:30;95454.78;;;10.73;73.71
7768;BME280;3928;42.626;23.382;2022-10-17T00:08:58;95465.91;;;10.61;74.01
7768;BME280;3928;42.626;23.382;2022-10-17T00:11:25;95455.59;;;10.50;74.33
7768;BME280;3928;42.626;23.382;2022-10-17T00:13:54;95462.44;;;10.39;74.79
7768;BME280;3928;42.626;23.382;2022-10-17T00:16:26;95456.44;;;10.34;75.01
7768;BME280;3928;42.626;23.382;2022-10-17T00:18:53;95460.72;;;10.32;75.08
7768;BME280;3928;42.626;23.382;2022-10-17T00:21:20;95458.13;;;10.26;75.48
7768;BME280;3928;42.626;23.382;2022-10-17T00:23:48;95467.50;;;10.21;75.11
7768;BME280;3928;42.626;23.382;2022-10-17T00:26:16;95466.53;;;10.01;75.71
7768;BME280;3928;42.626;23.382;2022-10-17T00:28:45;95463.94;;;9.85;76.64
7768;BME280;3928;42.626;23.382;2022-10-17T00:31:12;95465.50;;;9.60;79.47
7768;BME280;3928;42.626;23.382;2022-10-17T00:33:39;95459.38;;;9.37;80.29
7768;BME280;3928;42.626;23.382;2022-10-17T00:36:09;95448.97;;;9.14;82.47
7768;BME280;3928;42.626;23.382;2022-10-17T00:38:37;95461.78;;;9.16;83.72
7768;BME280;3928;42.626;23.382;2022-10-17T00:41:04;95466.00;;;9.09;85.13
7768;BME280;3928;42.626;23.382;2022-10-17T00:43:51;95474.41;;;8.90;86.02
7768;BME280;3928;42.626;23.382;2022-10-17T00:46:20;95467.50;;;8.83;86.94
7768;BME280;3928;42.626;23.382;2022-10-17T00:48:49;95467.34;;;8.64;88.96
7768;BME280;3928;42.626;23.382;2022-10-17T00:51:20;95477.50;;;8.55;90.02
7768;BME280;3928;42.626;23.382;2022-10-17T00:53:48;95469.69;;;8.41;92.30
7768;BME280;3928;42.626;23.382;2022-10-17T00:56:17;95444.75;;;8.27;91.55
7768;BME280;3928;42.626;23.382;2022-10-17T00:58:45;95473.03;;;8.37;92.47
7768;BME280;3928;42.626;23.382;2022-10-17T01:01:13;95468.75;;;8.35;91.97
7768;BME280;3928;42.626;23.382;2022-10-17T01:03:42;95465.19;;;8.24;92.63
7768;BME280;3928;42.626;23.382;2022-10-17T01:06:09;95458.25;;;8.15;92.69
7768;BME280;3928;42.626;23.382;2022-10-17T01:08:35;95465.16;;;8.19;93.66
7768;BME280;3928;42.626;23.382;2022-10-17T01:11:09;95466.97;;;8.31;93.32
7768;BME280;3928;42.626;23.382;2022-10-17T01:13:43;95466.28;;;8.41;93.12
7768;BME280;3928;42.626;23.382;2022-10-17T01:16:18;95471.34;;;8.39;92.76
7768;BME280;3928;42.626;23.382;2022-10-17T01:18:54;95464.50;;;8.37;92.79
7768;BME280;3928;42.626;23.382;2022-10-17T01:21:31;95468.81;;;8.41;92.51
7768;BME280;3928;42.626;23.382;2022-10-17T01:24:32;95465.44;;;8.45;92.52
7768;BME280;3928;42.626;23.382;2022-10-17T01:27:36;95473.75;;;8.29;93.32
7768;BME280;3928;42.626;23.382;2022-10-17T01:33:33;95456.63;;;8.18;92.95
7768;BME280;3928;42.626;23.382;2022-10-17T01:36:09;95459.22;;;8.23;93.13
7768;BME280;3928;42.626;23.382;2022-10-17T01:38:43;95470.38;;;8.30;92.51
7768;BME280;3928;42.626;23.382;2022-10-17T01:41:19;95465.34;;;8.36;91.55
7768;BME280;3928;42.626;23.382;2022-10-17T01:43:52;95472.31;;;8.49;91.11
7768;BME280;3928;42.626;23.382;2022-10-17T01:46:23;95476.66;;;8.58;90.62
7768;BME280;3928;42.626;23.382;2022-10-17T01:48:57;95482.75;;;8.72;89.79
7768;BME280;3928;42.626;23.382;2022-10-17T01:51:28;95487.13;;;8.82;88.33
7768;BME280;3928;42.626;23.382;2022-10-17T01:54:01;95479.53;;;8.90;87.87
7768;BME280;3928;42.626;23.382;2022-10-17T01:56:30;95479.56;;;8.96;87.17
7768;BME280;3928;42.626;23.382;2022-10-17T01:59:02;95487.25;;;8.97;86.27
7768;BME280;3928;42.626;23.382;2022-10-17T02:01:31;95414.31;;;8.49;86.59
7768;BME280;3928;42.626;23.382;2022-10-17T02:04:02;95476.03;;;8.82;86.69
7768;BME280;3928;42.626;23.382;2022-10-17T02:06:33;95493.13;;;8.87;87.29
7768;BME280;3928;42.626;23.382;2022-10-17T02:09:00;95493.16;;;8.89;87.31
7768;BME280;3928;42.626;23.382;2022-10-17T02:11:27;95493.19;;;8.92;87.54
7768;BME280;3928;42.626;23.382;2022-10-17T02:14:06;95493.16;;;8.89;87.01
7768;BME280;3928;42.626;23.382;2022-10-17T02:16:37;95488.84;;;8.86;86.23
7768;BME280;3928;42.626;23.382;2022-10-17T02:19:31;95487.22;;;8.93;86.85
7768;BME280;3928;42.626;23.382;2022-10-17T02:22:09;95488.09;;;8.95;86.48
7768;BME280;3928;42.626;23.382;2022-10-17T02:24:45;95493.16;;;8.89;85.69
7768;BME280;3928;42.626;23.382;2022-10-17T02:27:15;95491.38;;;8.82;85.89
7768;BME280;3928;42.626;23.382;2022-10-17T02:29:46;95494.78;;;8.77;85.71
7768;BME280;3928;42.626;23.382;2022-10-17T02:32:18;95501.56;;;8.75;85.73
7768;BME280;3928;42.626;23.382;2022-10-17T02:34:50;95485.25;;;8.64;86.69
7768;BME280;3928;42.626;23.382;2022-10-17T02:37:24;95493.88;;;8.75;86.88
7768;BME280;3928;42.626;23.382;2022-10-17T02:39:54;95499.06;;;8.82;85.94
7768;BME280;3928;42.626;23.382;2022-10-17T02:42:23;95494.56;;;8.59;86.62
7768;BME280;3928;42.626;23.382;2022-10-17T02:44:52;95496.13;;;8.43;88.24
7768;BME280;3928;42.626;23.382;2022-10-17T02:47:33;95498.31;;;8.13;90.23
7768;BME280;3928;42.626;23.382;2022-10-17T02:50:03;95501.50;;;7.94;91.99
7768;BME280;3928;42.626;23.382;2022-10-17T02:52:34;95491.00;;;7.72;93.33
7768;BME280;3928;42.626;23.382;2022-10-17T02:55:07;95510.59;;;7.75;94.56
7768;BME280;3928;42.626;23.382;2022-10-17T02:57:37;95508.78;;;7.66;95.58
7768;BME280;3928;42.626;23.382;2022-10-17T03:00:08;95509.63;;;7.67;95.94
7768;BME280;3928;42.626;23.382;2022-10-17T03:02:40;95516.47;;;7.68;95.86
7768;BME280;3928;42.626;23.382;2022-10-17T03:05:10;95517.38;;;7.70;95.86
7768;BME280;3928;42.626;23.382;2022-10-17T03:07:37;95518.16;;;7.67;96.07
7768;BME280;3928;42.626;23.382;2022-10-17T03:10:05;95526.63;;;7.65;96.36
7768;BME280;3928;42.626;23.382;2022-10-17T03:12:32;95535.00;;;7.53;97.11
7768;BME280;3928;42.626;23.382;2022-10-17T03:14:59;95517.97;;;7.55;97.40
7768;BME280;3928;42.626;23.382;2022-10-17T03:17:25;95518.06;;;7.58;97.36
7768;BME280;3928;42.626;23.382;2022-10-17T03:19:54;95522.19;;;7.51;98.21
7768;BME280;3928;42.626;23.382;2022-10-17T03:22:22;95521.47;;;7.58;98.01
7768;BME280;3928;42.626;23.382;2022-10-17T03:24:49;95526.53;;;7.57;98.19
7768;BME280;3928;42.626;23.382;2022-10-17T03:27:16;95526.31;;;7.43;98.43
7768;BME280;3928;42.626;23.382;2022-10-17T03:29:43;95529.69;;;7.41;99.17
7768;BME280;3928;42.626;23.382;2022-10-17T03:32:09;95532.09;;;7.30;99.69
7768;BME280;3928;42.626;23.382;2022-10-17T03:34:36;95522.56;;;7.20;100.00
7768;BME280;3928;42.626;23.382;2022-10-17T03:37:03;95529.34;;;7.18;100.00
7768;BME280;3928;42.626;23.382;2022-10-17T03:39:32;95521.44;;;7.02;100.00
7768;BME280;3928;42.626;23.382;2022-10-17T03:41:58;95541.06;;;7.05;100.00
7768;BME280;3928;42.626;23.382;2022-10-17T03:44:25;95534.38;;;7.12;100.00
7768;BME280;3928;42.626;23.382;2022-10-17T03:46:53;95541.09;;;7.08;100.00
7768;BME280;3928;42.626;23.382;2022-10-17T03:49:20;95530.84;;;7.05;100.00
7768;BME280;3928;42.626;23.382;2022-10-17T03:51:47;95541.94;;;7.09;100.00
7768;BME280;3928;42.626;23.382;2022-10-17T03:54:14;95548.06;;;7.17;100.00
7768;BME280;3928;42.626;23.382;2022-10-17T03:56:42;95549.03;;;7.25;100.00
7768;BME280;3928;42.626;23.382;2022-10-17T03:59:12;95550.81;;;7.29;100.00
7768;BME280;3928;42.626;23.382;2022-10-17T04:01:39;95549.97;;;7.30;99.67
7768;BME280;3928;42.626;23.382;2022-10-17T04:04:05;95518.13;;;7.10;100.00
7768;BME280;3928;42.626;23.382;2022-10-17T04:06:32;95542.03;;;7.12;99.90
7768;BME280;3928;42.626;23.382;2022-10-17T04:09:01;95554.69;;;7.07;100.00
7768;BME280;3928;42.626;23.382;2022-10-17T04:11:28;95539.28;;;7.01;100.00
7768;BME280;3928;42.626;23.382;2022-10-17T04:13:57;95543.41;;;6.94;100.00
7768;BME280;3928;42.626;23.382;2022-10-17T04:16:25;95554.38;;;6.87;100.00
7768;BME280;3928;42.626;23.382;2022-10-17T04:18:53;95556.00;;;6.84;100.00
7768;BME280;3928;42.626;23.382;2022-10-17T04:21:21;95557.72;;;6.86;100.00
7768;BME280;3928;42.626;23.382;2022-10-17T04:23:52;95555.19;;;6.86;99.67
7768;BME280;3928;42.626;23.382;2022-10-17T04:26:20;95558.69;;;6.91;99.12
7768;BME280;3928;42.626;23.382;2022-10-17T04:28:47;95557.91;;;6.97;98.26
7768;BME280;3928;42.626;23.382;2022-10-17T04:31:17;95558.84;;;7.00;98.18
7768;BME280;3928;42.626;23.382;2022-10-17T04:33:46;95556.28;;;6.99;97.55
7768;BME280;3928;42.626;23.382;2022-10-17T04:36:16;95555.47;;;7.01;96.97
7768;BME280;3928;42.626;23.382;2022-10-17T04:38:43;95512.50;;;6.76;96.34
7768;BME280;3928;42.626;23.382;2022-10-17T04:41:12;95556.44;;;7.10;96.40
7768;BME280;3928;42.626;23.382;2022-10-17T04:43:41;95564.16;;;7.13;95.82
7768;BME280;3928;42.626;23.382;2022-10-17T04:46:10;95478.00;;;6.50;95.97
7768;BME280;3928;42.626;23.382;2022-10-17T04:48:39;95566.44;;;6.97;96.63
7768;BME280;3928;42.626;23.382;2022-10-17T04:51:07;95568.91;;;6.91;97.79
7768;BME280;3928;42.626;23.382;2022-10-17T04:53:35;95572.16;;;6.84;97.83
7768;BME280;3928;42.626;23.382;2022-10-17T04:56:07;95571.25;;;6.81;98.53
7768;BME280;3928;42.626;23.382;2022-10-17T04:58:34;95571.28;;;6.82;98.92
7768;BME280;3928;42.626;23.382;2022-10-17T05:01:04;95574.69;;;6.83;99.26
7768;BME280;3928;42.626;23.382;2022-10-17T05:03:32;95574.38;;;6.64;100.00
7768;BME280;3928;42.626;23.382;2022-10-17T05:06:04;95579.34;;;6.60;100.00
7768;BME280;3928;42.626;23.382;2022-10-17T05:08:31;95589.63;;;6.63;100.00
7768;BME280;3928;42.626;23.382;2022-10-17T05:11:00;95588.88;;;6.67;100.00
7768;BME280;3928;42.626;23.382;2022-10-17T05:13:27;95599.13;;;6.70;100.00
7768;BME280;3928;42.626;23.382;2022-10-17T05:15:57;95599.19;;;6.74;100.00
7768;BME280;3928;42.626;23.382;2022-10-17T05:18:25;95590.75;;;6.77;100.00
7768;BME280;3928;42.626;23.382;2022-10-17T05:20:52;95602.78;;;6.84;100.00
7768;BME280;3928;42.626;23.382;2022-10-17T05:23:20;95601.22;;;6.92;100.00
7768;BME280;3928;42.626;23.382;2022-10-17T05:25:52;95605.75;;;7.07;100.00
7768;BME280;3928;42.626;23.382;2022-10-17T05:28:19;95604.06;;;7.08;100.00
7768;BME280;3928;42.626;23.382;2022-10-17T05:30:45;95610.13;;;7.14;100.00
7768;BME280;3928;42.626;23.382;2022-10-17T05:33:12;95602.53;;;7.17;100.00
7768;BME280;3928;42.626;23.382;2022-10-17T05:35:39;95604.25;;;7.20;100.00
7768;BME280;3928;42.626;23.382;2022-10-17T05:38:06;95610.16;;;7.16;100.00
7768;BME280;3928;42.626;23.382;2022-10-17T05:40:34;95611.00;;;7.15;100.00
7768;BME280;3928;42.626;23.382;2022-10-17T05:43:02;95601.56;;;7.11;100.00
7768;BME280;3928;42.626;23.382;2022-10-17T05:45:29;95610.31;;;7.25;100.00
7768;BME280;3928;42.626;23.382;2022-10-17T05:47:56;95611.38;;;7.36;100.00
7768;BME280;3928;42.626;23.382;2022-10-17T05:50:23;95617.56;;;7.52;100.00
7768;BME280;3928;42.626;23.382;2022-10-17T05:52:52;95621.22;;;7.68;100.00
7768;BME280;3928;42.626;23.382;2022-10-17T05:55:19;95612.09;;;7.82;98.90
7768;BME280;3928;42.626;23.382;2022-10-17T05:57:48;95616.56;;;7.98;97.91
7768;BME280;3928;42.626;23.382;2022-10-17T06:00:15;95628.78;;;8.17;97.04
7768;BME280;3928;42.626;23.382;2022-10-17T06:02:42;95623.94;;;8.36;95.80
7768;BME280;3928;42.626;23.382;2022-10-17T06:05:10;95627.56;;;8.53;94.16
7768;BME280;3928;42.626;23.382;2022-10-17T06:07:37;95627.63;;;8.59;93.19
7768;BME280;3928;42.626;23.382;2022-10-17T06:10:05;95516.13;;;8.05;92.55
7768;BME280;3928;42.626;23.382;2022-10-17T06:12:38;95643.03;;;8.62;91.50
7768;BME280;3928;42.626;23.382;2022-10-17T06:15:09;95642.13;;;8.57;92.67
7768;BME280;3928;42.626;23.382;2022-10-17T06:17:36;95643.91;;;8.64;92.28
7768;BME280;3928;42.626;23.382;2022-10-17T06:20:04;95559.81;;;8.25;91.85
7768;BME280;3928;42.626;23.382;2022-10-17T06:22:31;95653.66;;;8.96;92.60
7768;BME280;3928;42.626;23.382;2022-10-17T06:24:58;95648.69;;;9.11;91.18
7768;BME280;3928;42.626;23.382;2022-10-17T06:27:25;95661.81;;;9.40;90.32
7768;BME280;3928;42.626;23.382;2022-10-17T06:29:52;95658.63;;;9.70;90.21
7768;BME280;3928;42.626;23.382;2022-10-17T06:32:20;95666.66;;;10.10;90.42
7768;BME280;3928;42.626;23.382;2022-10-17T06:34:47;95659.22;;;10.45;86.31
7768;BME280;3928;42.626;23.382;2022-10-17T06:37:13;95667.09;;;10.80;86.00
7768;BME280;3928;42.626;23.382;2022-10-17T06:39:40;95661.19;;;11.10;83.97
7768;BME280;3928;42.626;23.382;2022-10-17T06:42:07;95676.69;;;11.48;81.27
7768;BME280;3928;42.626;23.382;2022-10-17T06:44:34;95677.59;;;11.68;81.13
7768;BME280;3928;42.626;23.382;2022-10-17T06:47:01;95665.66;;;11.98;79.71
7768;BME280;3928;42.626;23.382;2022-10-17T06:49:29;95679.31;;;12.40;77.49
7768;BME280;3928;42.626;23.382;2022-10-17T06:51:57;95669.78;;;12.75;74.63
7768;BME280;3928;42.626;23.382;2022-10-17T06:54:24;95656.81;;;13.03;80.43
7768;BME280;3928;42.626;23.382;2022-10-17T06:56:52;95676.34;;;13.53;75.35
7768;BME280;3928;42.626;23.382;2022-10-17T06:59:20;95672.56;;;13.96;71.55
7768;BME280;3928;42.626;23.382;2022-10-17T07:01:47;95670.50;;;14.38;67.05
7768;BME280;3928;42.626;23.382;2022-10-17T07:04:14;95665.78;;;14.83;66.59
7768;BME280;3928;42.626;23.382;2022-10-17T07:06:42;95666.28;;;15.11;61.08
7768;BME280;3928;42.626;23.382;2022-10-17T07:09:09;95671.94;;;15.42;67.36
7768;BME280;3928;42.626;23.382;2022-10-17T07:11:36;95671.25;;;15.91;66.00
7768;BME280;3928;42.626;23.382;2022-10-17T07:14:04;95677.50;;;16.30;63.49
7768;BME280;3928;42.626;23.382;2022-10-17T07:16:31;95673.41;;;16.66;56.88
7768;BME280;3928;42.626;23.382;2022-10-17T07:18:58;95675.56;;;16.90;59.35
7768;BME280;3928;42.626;23.382;2022-10-17T07:21:25;95677.66;;;17.18;55.28
7768;BME280;3928;42.626;23.382;2022-10-17T07:23:53;95662.72;;;17.29;53.05
7768;BME280;3928;42.626;23.382;2022-10-17T07:26:20;95684.47;;;17.62;52.57
7768;BME280;3928;42.626;23.382;2022-10-17T07:28:58;95649.22;;;17.53;50.62
7768;BME280;3928;42.626;23.382;2022-10-17T07:31:26;95680.38;;;17.92;53.09
7768;BME280;3928;42.626;23.382;2022-10-17T07:33:52;95681.84;;;18.04;50.13
7768;BME280;3928;42.626;23.382;2022-10-17T07:36:19;95629.56;;;17.80;48.49
7768;BME280;3928;42.626;23.382;2022-10-17T07:38:46;95654.78;;;18.13;49.21
7768;BME280;3928;42.626;23.382;2022-10-17T07:41:15;95679.69;;;18.55;49.82
7768;BME280;3928;42.626;23.382;2022-10-17T07:43:42;95675.66;;;18.78;48.03
7768;BME280;3928;42.626;23.382;2022-10-17T07:46:08;95660.06;;;18.78;47.68
7768;BME280;3928;42.626;23.382;2022-10-17T07:48:38;95645.06;;;18.87;46.78
7768;BME280;3928;42.626;23.382;2022-10-17T07:51:06;95687.31;;;19.26;45.49
7768;BME280;3928;42.626;23.382;2022-10-17T07:53:34;95677.56;;;19.35;46.41
7768;BME280;3928;42.626;23.382;2022-10-17T07:56:05;95686.53;;;19.54;44.63
7768;BME280;3928;42.626;23.382;2022-10-17T07:58:34;95683.41;;;19.72;44.30
7768;BME280;3928;42.626;23.382;2022-10-17T08:01:02;95684.56;;;19.92;44.67
7768;BME280;3928;42.626;23.382;2022-10-17T08:03:29;95678.69;;;20.13;41.88
7768;BME280;3928;42.626;23.382;2022-10-17T08:05:57;95680.03;;;20.25;41.76
7768;BME280;3928;42.626;23.382;2022-10-17T08:08:24;95672.38;;;20.47;42.42
7768;BME280;3928;42.626;23.382;2022-10-17T08:10:52;95680.22;;;20.71;41.25
7768;BME280;3928;42.626;23.382;2022-10-17T08:13:20;95665.69;;;20.89;41.11
7768;BME280;3928;42.626;23.382;2022-10-17T08:15:48;95668.53;;;21.07;39.44
7768;BME280;3928;42.626;23.382;2022-10-17T08:18:15;95670.28;;;21.08;38.75
7768;BME280;3928;42.626;23.382;2022-10-17T08:20:42;95663.00;;;21.16;40.14
7768;BME280;3928;42.626;23.382;2022-10-17T08:23:09;95665.91;;;21.33;39.82
7768;BME280;3928;42.626;23.382;2022-10-17T08:25:36;95657.53;;;21.47;39.15
7768;BME280;3928;42.626;23.382;2022-10-17T08:28:04;95672.22;;;21.73;37.87
7768;BME280;3928;42.626;23.382;2022-10-17T08:30:30;95659.47;;;21.87;37.96
7768;BME280;3928;42.626;23.382;2022-10-17T08:32:59;95672.72;;;22.04;37.74
7768;BME280;3928;42.626;23.382;2022-10-17T08:35:27;95667.97;;;22.15;37.19
7768;BME280;3928;42.626;23.382;2022-10-17T08:37:54;95658.72;;;22.07;37.04
7768;BME280;3928;42.626;23.382;2022-10-17T08:40:27;95664.00;;;22.27;35.92
7768;BME280;3928;42.626;23.382;2022-10-17T08:43:17;95659.06;;;22.41;35.39
7768;BME280;3928;42.626;23.382;2022-10-17T08:45:50;95663.50;;;22.39;34.73
7768;BME280;3928;42.626;23.382;2022-10-17T08:48:20;95659.38;;;22.54;33.76
7768;BME280;3928;42.626;23.382;2022-10-17T08:50:51;95671.66;;;22.74;35.27
7768;BME280;3928;42.626;23.382;2022-10-17T08:53:21;95664.88;;;22.68;33.49
7768;BME280;3928;42.626;23.382;2022-10-17T08:55:51;95669.59;;;22.81;32.36
7768;BME280;3928;42.626;23.382;2022-10-17T08:58:21;95675.56;;;22.84;31.05
7768;BME280;3928;42.626;23.382;2022-10-17T09:00:56;95670.94;;;22.91;29.97
7768;BME280;3928;42.626;23.382;2022-10-17T09:03:41;95664.84;;;23.11;30.78
7768;BME280;3928;42.626;23.382;2022-10-17T09:06:17;95608.31;;;22.86;31.79
7768;BME280;3928;42.626;23.382;2022-10-17T09:08:55;95651.75;;;23.29;30.66
7768;BME280;3928;42.626;23.382;2022-10-17T09:11:38;95675.00;;;23.56;32.12
7768;BME280;3928;42.626;23.382;2022-10-17T09:14:29;95671.38;;;23.79;30.96
7768;BME280;3928;42.626;23.382;2022-10-17T09:17:08;95653.59;;;23.85;30.81
7768;BME280;3928;42.626;23.382;2022-10-17T09:19:40;95671.72;;;24.09;30.02
7768;BME280;3928;42.626;23.382;2022-10-17T09:22:12;95676.94;;;24.28;30.10
7768;BME280;3928;42.626;23.382;2022-10-17T09:24:43;95662.75;;;24.49;30.61
7768;BME280;3928;42.626;23.382;2022-10-17T09:27:22;95667.13;;;24.67;28.66
7768;BME280;3928;42.626;23.382;2022-10-17T09:29:53;95668.66;;;24.89;28.84
7768;BME280;3928;42.626;23.382;2022-10-17T09:32:23;95665.88;;;25.09;28.49
7768;BME280;3928;42.626;23.382;2022-10-17T09:34:52;95656.38;;;25.06;27.43
7768;BME280;3928;42.626;23.382;2022-10-17T09:37:26;95669.81;;;25.00;28.01
7768;BME280;3928;42.626;23.382;2022-10-17T09:39:55;95659.75;;;25.08;28.19
7768;BME280;3928;42.626;23.382;2022-10-17T09:42:23;95666.03;;;25.23;26.66
7768;BME280;3928;42.626;23.382;2022-10-17T09:44:55;95657.56;;;25.34;27.44
7768;BME280;3928;42.626;23.382;2022-10-17T09:47:33;95616.09;;;25.23;26.35
7768;BME280;3928;42.626;23.382;2022-10-17T09:50:15;95659.94;;;25.72;26.41
7768;BME280;3928;42.626;23.382;2022-10-17T09:52:46;95661.13;;;25.98;27.16
7768;BME280;3928;42.626;23.382;2022-10-17T09:55:17;95661.38;;;26.24;26.20
7768;BME280;3928;42.626;23.382;2022-10-17T09:57:54;95653.41;;;26.42;26.33
7768;BME280;3928;42.626;23.382;2022-10-17T10:00:23;95640.63;;;26.50;25.35
7768;BME280;3928;42.626;23.382;2022-10-17T10:02:50;95651.59;;;26.72;26.00
7768;BME280;3928;42.626;23.382;2022-10-17T10:05:35;95650.63;;;26.89;25.16
7768;BME280;3928;42.626;23.382;2022-10-17T10:08:04;95650.78;;;27.02;25.60
7768;BME280;3928;42.626;23.382;2022-10-17T10:10:32;95639.75;;;27.09;23.75
7768;BME280;3928;42.626;23.382;2022-10-17T10:13:04;95643.63;;;27.18;24.01
7768;BME280;3928;42.626;23.382;2022-10-17T10:15:34;95641.94;;;27.31;23.71
7768;BME280;3928;42.626;23.382;2022-10-17T10:18:02;95633.66;;;27.37;24.23
7768;BME280;3928;42.626;23.382;2022-10-17T10:21:03;95637.59;;;27.45;22.96
7768;BME280;3928;42.626;23.382;2022-10-17T10:23:31;95634.00;;;27.46;23.38
7768;BME280;3928;42.626;23.382;2022-10-17T10:26:01;95636.00;;;27.56;23.79
7768;BME280;3928;42.626;23.382;2022-10-17T10:28:31;95634.59;;;27.65;23.57
7768;BME280;3928;42.626;23.382;2022-10-17T10:31:01;95578.84;;;27.43;22.72
7768;BME280;3928;42.626;23.382;2022-10-17T10:33:29;95618.56;;;27.68;23.41
7768;BME280;3928;42.626;23.382;2022-10-17T10:36:00;95626.66;;;27.79;22.54
7768;BME280;3928;42.626;23.382;2022-10-17T10:38:28;95621.41;;;27.51;21.65
7768;BME280;3928;42.626;23.382;2022-10-17T10:41:01;95623.84;;;27.54;23.27
7768;BME280;3928;42.626;23.382;2022-10-17T10:43:32;95620.00;;;27.74;23.23
7768;BME280;3928;42.626;23.382;2022-10-17T10:46:03;95617.88;;;27.93;22.00
7768;BME280;3928;42.626;23.382;2022-10-17T10:48:34;95603.59;;;28.10;22.89
7768;BME280;3928;42.626;23.382;2022-10-17T10:51:05;95607.41;;;28.33;22.13
7768;BME280;3928;42.626;23.382;2022-10-17T10:53:41;95618.97;;;28.57;22.00
7768;BME280;3928;42.626;23.382;2022-10-17T10:56:13;95604.63;;;28.74;21.92
7768;BME280;3928;42.626;23.382;2022-10-17T10:58:49;95604.25;;;28.93;21.94
7768;BME280;3928;42.626;23.382;2022-10-17T11:01:22;95609.34;;;29.08;21.68
7768;BME280;3928;42.626;23.382;2022-10-17T11:04:05;95601.28;;;29.23;20.80
7768;BME280;3928;42.626;23.382;2022-10-17T11:06:39;95598.53;;;29.24;21.45
7768;BME280;3928;42.626;23.382;2022-10-17T11:09:17;95585.22;;;29.26;20.88
7768;BME280;3928;42.626;23.382;2022-10-17T11:11:52;95538.50;;;29.14;21.03
7768;BME280;3928;42.626;23.382;2022-10-17T11:14:31;95595.38;;;29.06;20.11
7768;BME280;3928;42.626;23.382;2022-10-17T11:17:04;95580.88;;;28.34;21.33
7768;BME280;3928;42.626;23.382;2022-10-17T11:19:39;95589.34;;;28.39;21.83
7768;BME280;3928;42.626;23.382;2022-10-17T11:22:14;95580.06;;;28.34;22.33
7768;BME280;3928;42.626;23.382;2022-10-17T11:24:46;95588.50;;;28.39;22.60
7768;BME280;3928;42.626;23.382;2022-10-17T11:27:14;95586.88;;;28.76;22.33
7768;BME280;3928;42.626;23.382;2022-10-17T11:29:42;95581.53;;;29.16;21.53
7768;BME280;3928;42.626;23.382;2022-10-17T11:32:12;95581.84;;;29.49;20.94
7768;BME280;3928;42.626;23.382;2022-10-17T11:34:44;95581.19;;;29.82;20.24
7768;BME280;3928;42.626;23.382;2022-10-17T11:37:16;95572.34;;;30.07;20.18
7768;BME280;3928;42.626;23.382;2022-10-17T11:39:48;95576.34;;;30.37;19.07
7768;BME280;3928;42.626;23.382;2022-10-17T11:42:21;95572.78;;;30.49;20.03
7768;BME280;3928;42.626;23.382;2022-10-17T11:44:53;95568.69;;;29.97;19.38
7768;BME280;3928;42.626;23.382;2022-10-17T11:47:28;95576.19;;;29.66;20.69
7768;BME280;3928;42.626;23.382;2022-10-17T11:50:01;95576.59;;;30.10;20.72
7768;BME280;3928;42.626;23.382;2022-10-17T11:52:34;95560.56;;;30.35;20.51
7768;BME280;3928;42.626;23.382;2022-10-17T11:55:10;95559.56;;;30.60;19.67
7768;BME280;3928;42.626;23.382;2022-10-17T11:57:51;95564.00;;;30.95;19.82
7768;BME280;3928;42.626;23.382;2022-10-17T12:00:29;95562.94;;;31.08;18.38
7768;BME280;3928;42.626;23.382;2022-10-17T12:03:06;95541.97;;;31.17;19.20
7768;BME280;3928;42.626;23.382;2022-10-17T12:05:43;95558.47;;;31.65;19.11
7768;BME280;3928;42.626;23.382;2022-10-17T12:08:18;95550.22;;;32.02;18.18
7768;BME280;3928;42.626;23.382;2022-10-17T12:10:53;95563.16;;;32.38;17.84
7768;BME280;3928;42.626;23.382;2022-10-17T12:13:47;95556.69;;;32.73;17.54
7768;BME280;3928;42.626;23.382;2022-10-17T12:16:42;95549.25;;;33.08;16.97
7768;BME280;3928;42.626;23.382;2022-10-17T12:19:30;95557.06;;;33.31;17.47
7768;BME280;3928;42.626;23.382;2022-10-17T12:22:18;95555.63;;;33.57;17.40
7768;BME280;3928;42.626;23.382;2022-10-17T12:24:57;95562.53;;;33.08;16.58
7768;BME280;3928;42.626;23.382;2022-10-17T12:27:33;95552.22;;;32.73;17.64
7768;BME280;3928;42.626;23.382;2022-10-17T12:30:04;95551.00;;;32.24;17.21
7768;BME280;3928;42.626;23.382;2022-10-17T12:32:32;95544.75;;;31.37;18.07
7768;BME280;3928;42.626;23.382;2022-10-17T12:34:59;95548.59;;;31.56;18.68
7768;BME280;3928;42.626;23.382;2022-10-17T12:38:03;95542.66;;;32.18;18.38
7768;BME280;3928;42.626;23.382;2022-10-17T12:41:00;95536.91;;;32.66;17.25
7768;BME280;3928;42.626;23.382;2022-10-17T12:43:53;95542.94;;;33.09;17.77
7768;BME280;3928;42.626;23.382;2022-10-17T12:46:45;95540.88;;;33.43;16.88
7768;BME280;3928;42.626;23.382;2022-10-17T12:49:36;95541.81;;;33.83;17.34
7768;BME280;3928;42.626;23.382;2022-10-17T12:55:12;95537.44;;;34.12;16.60
7768;BME280;3928;42.626;23.382;2022-10-17T12:57:46;95545.19;;;33.75;16.28
7768;BME280;3928;42.626;23.382;2022-10-17T13:00:30;95527.50;;;33.64;15.76
7768;BME280;3928;42.626;23.382;2022-10-17T13:03:05;95538.41;;;33.00;15.90
7768;BME280;3928;42.626;23.382;2022-10-17T13:05:37;95534.09;;;32.57;16.98
7768;BME280;3928;42.626;23.382;2022-10-17T13:08:07;95548.25;;;32.15;16.59
7768;BME280;3928;42.626;23.382;2022-10-17T13:10:36;95502.63;;;31.55;16.46
7768;BME280;3928;42.626;23.382;2022-10-17T13:13:12;95543.63;;;30.84;17.14
7768;BME280;3928;42.626;23.382;2022-10-17T13:15:45;95537.13;;;30.18;17.71
7768;BME280;3928;42.626;23.382;2022-10-17T13:18:17;95539.91;;;30.16;18.19
7768;BME280;3928;42.626;23.382;2022-10-17T13:20:54;95525.69;;;30.52;17.27
7768;BME280;3928;42.626;23.382;2022-10-17T13:23:22;95537.56;;;30.71;17.71
7768;BME280;3928;42.626;23.382;2022-10-17T13:26:02;95533.88;;;31.18;17.69
7768;BME280;3928;42.626;23.382;2022-10-17T13:28:31;95534.84;;;31.62;17.23
7768;BME280;3928;42.626;23.382;2022-10-17T13:31:00;95506.81;;;31.69;16.78
7768;BME280;3928;42.626;23.382;2022-10-17T13:33:31;95383.56;;;31.07;17.27
7768;BME280;3928;42.626;23.382;2022-10-17T13:36:02;95538.28;;;32.28;16.67
7768;BME280;3928;42.626;23.382;2022-10-17T13:38:31;95535.16;;;32.76;16.43
7768;BME280;3928;42.626;23.382;2022-10-17T13:41:00;95540.03;;;33.43;15.98
7768;BME280;3928;42.626;23.382;2022-10-17T13:43:29;95536.97;;;33.88;14.75